Time;durP1;ratioP1;P1;durP2;ratioP2;P2;SDS_P1;SDS_P2;PMS_P1;PMS_P2;Temp;Humidity;BMP_temperature;BMP_pressure;BME280_temperature;BME280_humidity;BME280_pressure;Samples;Min_cycle;Max_cycle;Signal;HPM_P1;HPM_P2
2021/01/16 00:00:28;;;;;;;29.55;18.17;;;4.10;60.20;;;;;;5013657;28;20018;-83
2021/01/16 00:02:54;;;;;;;34.38;18.75;;;4.10;60.20;;;;;;5013605;28;20021;-83
2021/01/16 00:05:23;;;;;;;36.40;21.75;;;4.10;60.10;;;;;;5012070;28;20479;-82
2021/01/16 00:08:19;;;;;;;31.98;18.23;;;4.10;60.00;;;;;;5013295;28;20479;-81
2021/01/16 00:10:47;;;;;;;28.70;18.10;;;4.10;60.00;;;;;;5012849;28;20082;-83
2021/01/16 00:13:15;;;;;;;32.80;18.77;;;4.10;59.90;;;;;;5011961;28;20029;-82
2021/01/16 00:15:41;;;;;;;28.23;17.58;;;4.10;59.80;;;;;;5013285;28;20034;-83
2021/01/16 00:18:10;;;;;;;27.73;16.10;;;4.10;59.70;;;;;;5013267;28;20076;-83
2021/01/16 00:20:38;;;;;;;25.10;15.65;;;4.10;59.60;;;;;;5011527;28;20069;-83
2021/01/16 00:23:05;;;;;;;27.92;15.65;;;4.10;59.50;;;;;;5013647;28;20081;-83
2021/01/16 00:25:31;;;;;;;26.45;16.05;;;4.10;59.40;;;;;;5011916;28;20026;-82
2021/01/16 00:27:57;;;;;;;26.42;15.45;;;4.10;59.20;;;;;;5013515;28;20022;-83
2021/01/16 00:30:28;;;;;;;29.85;17.17;;;4.10;59.20;;;;;;5012126;28;20080;-83
2021/01/16 00:32:54;;;;;;;30.95;15.63;;;4.00;59.10;;;;;;5011789;28;20335;-83
2021/01/16 00:35:21;;;;;;;27.42;16.05;;;4.10;59.10;;;;;;5013290;28;20022;-83
2021/01/16 00:37:49;;;;;;;28.58;17.35;;;4.00;59.10;;;;;;5013222;28;20026;-83
2021/01/16 00:40:17;;;;;;;29.33;16.67;;;4.00;59.20;;;;;;5013217;28;20018;-83
2021/01/16 00:42:44;;;;;;;27.80;16.73;;;4.00;59.20;;;;;;5013033;28;20099;-82
2021/01/16 00:45:11;;;;;;;29.67;16.75;;;4.00;59.10;;;;;;5015874;28;20029;-83
2021/01/16 00:47:38;;;;;;;25.52;15.50;;;4.00;59.10;;;;;;5020410;28;20041;-83
2021/01/16 00:50:06;;;;;;;23.70;14.60;;;4.00;59.00;;;;;;5019144;28;20030;-83
2021/01/16 00:52:32;;;;;;;28.67;15.68;;;4.00;58.90;;;;;;5020526;28;20022;-83
2021/01/16 00:54:58;;;;;;;23.88;14.30;;;3.90;58.70;;;;;;5022818;28;20085;-82
2021/01/16 00:57:26;;;;;;;28.77;15.30;;;3.90;58.60;;;;;;5043555;28;20088;-82
2021/01/16 00:59:52;;;;;;;24.98;15.55;;;3.90;58.70;;;;;;5023716;28;20045;-82
2021/01/16 01:02:18;;;;;;;24.95;14.68;;;3.90;58.70;;;;;;5039138;28;20022;-81
2021/01/16 01:04:44;;;;;;;25.80;15.38;;;3.90;58.80;;;;;;5023059;28;20685;-82
2021/01/16 01:07:12;;;;;;;27.02;14.80;;;3.90;58.80;;;;;;5025030;28;20029;-82
2021/01/16 01:09:42;;;;;;;26.95;15.35;;;3.80;58.80;;;;;;5024095;28;20360;-81
2021/01/16 01:12:09;;;;;;;25.65;15.60;;;3.90;58.90;;;;;;5035541;28;20030;-83
2021/01/16 01:14:35;;;;;;;22.35;14.10;;;3.90;58.90;;;;;;5018688;28;20033;-83
2021/01/16 01:17:02;;;;;;;24.25;14.45;;;3.90;58.90;;;;;;5019941;28;20057;-83
2021/01/16 01:19:28;;;;;;;24.50;13.75;;;3.90;58.90;;;;;;5034550;28;20103;-83
2021/01/16 01:21:54;;;;;;;22.77;13.68;;;3.80;58.80;;;;;;5018281;28;20030;-83
2021/01/16 01:24:20;;;;;;;20.67;13.07;;;3.90;58.90;;;;;;5019490;28;20107;-83
2021/01/16 01:26:46;;;;;;;19.95;11.77;;;3.90;58.80;;;;;;5019483;28;20049;-83
2021/01/16 01:29:12;;;;;;;23.40;13.70;;;3.80;58.70;;;;;;5018146;28;20466;-83
2021/01/16 01:31:38;;;;;;;21.58;12.50;;;3.80;58.60;;;;;;5017733;28;20479;-84
2021/01/16 01:34:04;;;;;;;17.35;10.70;;;3.80;58.60;;;;;;5018229;28;20029;-83
2021/01/16 01:36:30;;;;;;;19.40;12.07;;;3.80;58.70;;;;;;5018281;28;20542;-83
2021/01/16 01:38:56;;;;;;;20.52;11.95;;;3.80;58.60;;;;;;5018204;28;20025;-83
2021/01/16 01:41:23;;;;;;;23.60;14.18;;;3.80;58.70;;;;;;5019276;28;20093;-83
2021/01/16 01:43:49;;;;;;;22.40;13.18;;;3.80;58.60;;;;;;5017889;28;20050;-83
2021/01/16 01:46:16;;;;;;;21.65;12.77;;;3.80;58.70;;;;;;5018115;28;20057;-83
2021/01/16 01:48:42;;;;;;;20.88;12.75;;;3.80;58.70;;;;;;5018387;28;20030;-83
2021/01/16 01:51:09;;;;;;;18.38;11.10;;;3.80;58.70;;;;;;5034553;28;20061;-83
2021/01/16 01:53:36;;;;;;;18.67;11.10;;;3.80;58.60;;;;;;5019099;28;20030;-83
2021/01/16 01:56:03;;;;;;;18.77;11.48;;;3.80;58.50;;;;;;5018019;28;20490;-83
2021/01/16 01:58:31;;;;;;;19.27;11.63;;;3.80;58.40;;;;;;5030291;28;20038;-83
2021/01/16 02:00:57;;;;;;;18.73;12.05;;;3.70;58.30;;;;;;5015980;28;20416;-83
2021/01/16 02:03:25;;;;;;;20.65;11.63;;;3.80;58.40;;;;;;5011491;28;20026;-84
2021/01/16 02:05:54;;;;;;;17.52;10.65;;;3.80;58.30;;;;;;4996559;28;20054;-82
2021/01/16 02:08:21;;;;;;;18.38;11.30;;;3.70;58.30;;;;;;4996650;28;20526;-83
2021/01/16 02:10:46;;;;;;;19.40;11.55;;;3.70;58.30;;;;;;4996517;28;20468;-83
2021/01/16 02:13:14;;;;;;;16.60;10.05;;;3.70;58.30;;;;;;5025429;28;20034;-83
2021/01/16 02:15:47;;;;;;;15.93;9.65;;;3.70;58.20;;;;;;5015919;28;20101;-83
2021/01/16 02:18:18;;;;;;;16.48;10.00;;;3.70;58.20;;;;;;5015662;28;20514;-83
2021/01/16 02:20:46;;;;;;;16.65;9.68;;;3.70;58.20;;;;;;5030975;28;20042;-83
2021/01/16 02:23:12;;;;;;;16.05;9.95;;;3.70;58.30;;;;;;5016127;28;20111;-83
2021/01/16 02:25:40;;;;;;;19.52;10.63;;;3.70;58.30;;;;;;5014264;28;20046;-82
2021/01/16 02:28:16;;;;;;;24.30;10.75;;;3.70;58.30;;;;;;5030541;28;20468;-83
2021/01/16 02:30:44;;;;;;;13.30;8.40;;;3.70;58.20;;;;;;5030749;28;20025;-82
2021/01/16 02:33:17;;;;;;;12.27;8.30;;;3.70;58.20;;;;;;5030443;28;20033;-83
2021/01/16 02:36:13;;;;;;;12.23;7.75;;;3.70;58.30;;;;;;5014692;28;20026;-83
2021/01/16 02:39:24;;;;;;;14.85;8.15;;;3.80;58.30;;;;;;5015663;28;20029;-83
2021/01/16 02:42:01;;;;;;;11.95;7.30;;;3.80;58.30;;;;;;5030639;28;20018;-83
2021/01/16 02:44:42;;;;;;;11.27;7.38;;;3.80;58.30;;;;;;5015331;28;20441;-83
2021/01/16 02:47:22;;;;;;;13.05;8.65;;;3.80;58.30;;;;;;5014099;28;20022;-83
2021/01/16 02:49:52;;;;;;;12.82;7.72;;;3.80;58.20;;;;;;5014287;28;20022;-83
2021/01/16 02:52:20;;;;;;;12.90;7.70;;;3.80;58.20;;;;;;5013688;28;20032;-83
2021/01/16 02:54:47;;;;;;;11.57;7.20;;;3.90;58.20;;;;;;5010236;28;20502;-84
2021/01/16 02:57:13;;;;;;;14.35;8.55;;;3.90;58.10;;;;;;5028257;28;20037;-83
2021/01/16 02:59:46;;;;;;;16.38;9.02;;;3.90;58.00;;;;;;5014695;28;20030;-83
2021/01/16 03:02:14;;;;;;;12.35;7.70;;;3.90;57.90;;;;;;5015785;28;20033;-83
2021/01/16 03:04:40;;;;;;;12.85;8.20;;;3.90;57.70;;;;;;5014351;28;20030;-83
2021/01/16 03:07:08;;;;;;;14.20;8.13;;;3.90;57.70;;;;;;5014600;28;20481;-83
2021/01/16 03:09:35;;;;;;;12.88;7.93;;;3.90;57.60;;;;;;5015122;28;20068;-83
2021/01/16 03:12:01;;;;;;;14.10;8.23;;;3.80;57.50;;;;;;5014603;28;20084;-83
2021/01/16 03:14:33;;;;;;;11.18;6.75;;;3.90;57.40;;;;;;5014143;28;20022;-83
2021/01/16 03:17:09;;;;;;;9.38;6.15;;;3.90;57.30;;;;;;5015742;28;20116;-83
2021/01/16 03:19:38;;;;;;;12.25;7.53;;;3.90;57.30;;;;;;5014081;28;20076;-83
2021/01/16 03:22:19;;;;;;;11.25;7.22;;;3.90;57.30;;;;;;5014007;28;20025;-82
2021/01/16 03:24:46;;;;;;;12.98;7.82;;;3.80;57.20;;;;;;5015916;28;20026;-83
2021/01/16 03:27:13;;;;;;;11.02;6.82;;;3.80;57.30;;;;;;5015143;28;20026;-83
2021/01/16 03:29:39;;;;;;;10.68;6.03;;;3.80;57.30;;;;;;5013814;28;20029;-83
2021/01/16 03:32:06;;;;;;;12.63;7.40;;;3.80;57.30;;;;;;5015406;28;20613;-83
2021/01/16 03:34:32;;;;;;;10.40;6.30;;;3.80;57.40;;;;;;5015032;28;20472;-83
2021/01/16 03:36:59;;;;;;;11.32;6.70;;;3.80;57.40;;;;;;5013441;28;20029;-83
2021/01/16 03:39:24;;;;;;;11.52;7.07;;;3.80;57.40;;;;;;5013293;28;20041;-83
2021/01/16 03:41:50;;;;;;;12.65;6.95;;;3.80;57.40;;;;;;5030040;28;20480;-83
2021/01/16 03:44:16;;;;;;;11.68;7.00;;;3.80;57.40;;;;;;5013598;28;20105;-83
2021/01/16 03:46:42;;;;;;;10.63;6.00;;;3.80;57.40;;;;;;5013193;28;20026;-83
2021/01/16 03:49:07;;;;;;;10.45;6.45;;;3.70;57.40;;;;;;5029783;28;20037;-83
2021/01/16 03:51:33;;;;;;;11.02;6.78;;;3.70;57.30;;;;;;5014550;28;20057;-83
2021/01/16 03:53:59;;;;;;;9.90;6.47;;;3.70;57.30;;;;;;5014620;28;20390;-83
2021/01/16 03:56:25;;;;;;;13.80;6.45;;;3.70;57.20;;;;;;5013161;28;20395;-83
2021/01/16 03:58:50;;;;;;;9.48;5.88;;;3.70;57.20;;;;;;5014737;28;20060;-83
2021/01/16 04:01:16;;;;;;;10.68;6.15;;;3.70;57.20;;;;;;5013329;28;20022;-83
2021/01/16 04:03:42;;;;;;;9.63;6.03;;;3.60;57.10;;;;;;5014416;28;20050;-83
2021/01/16 04:06:14;;;;;;;9.90;5.93;;;3.60;57.10;;;;;;5014088;28;20022;-83
2021/01/16 04:08:39;;;;;;;11.15;6.65;;;3.60;57.10;;;;;;4993709;28;20034;-83
2021/01/16 04:11:05;;;;;;;12.02;7.00;;;3.60;57.10;;;;;;5014245;28;20491;-83
2021/01/16 04:13:31;;;;;;;9.75;5.78;;;3.60;57.20;;;;;;5013221;28;20026;-83
2021/01/16 04:15:56;;;;;;;11.05;6.10;;;3.50;57.10;;;;;;5014162;28;20033;-83
2021/01/16 04:18:22;;;;;;;25.05;8.80;;;3.50;57.10;;;;;;5012704;28;20045;-83
2021/01/16 04:20:48;;;;;;;10.85;6.50;;;3.50;57.10;;;;;;5013369;28;20042;-83
2021/01/16 04:23:14;;;;;;;13.35;7.53;;;3.50;57.10;;;;;;5014595;28;20018;-83
2021/01/16 04:25:39;;;;;;;12.63;6.95;;;3.50;57.20;;;;;;5012902;28;20410;-83
2021/01/16 04:28:05;;;;;;;10.48;6.35;;;3.40;57.30;;;;;;5012693;28;20026;-83
2021/01/16 04:30:31;;;;;;;10.98;6.72;;;3.40;57.30;;;;;;5014250;28;20029;-83
2021/01/16 04:32:57;;;;;;;11.07;6.35;;;3.50;57.40;;;;;;5014045;28;20072;-83
2021/01/16 04:35:22;;;;;;;14.07;7.85;;;3.40;57.40;;;;;;5014490;28;20025;-83
2021/01/16 04:37:48;;;;;;;13.95;8.52;;;3.40;57.40;;;;;;5013844;28;20041;-83
2021/01/16 04:40:14;;;;;;;12.00;6.45;;;3.40;57.40;;;;;;5013794;28;20413;-83
2021/01/16 04:42:44;;;;;;;11.70;7.13;;;3.40;57.40;;;;;;5013701;28;20077;-83
2021/01/16 04:45:16;;;;;;;13.55;8.27;;;3.50;57.50;;;;;;5029161;28;20095;-83
2021/01/16 04:47:43;;;;;;;13.23;7.60;;;3.50;57.50;;;;;;5012445;28;20073;-82
2021/01/16 04:50:14;;;;;;;11.82;7.35;;;3.50;57.40;;;;;;5014269;28;20423;-83
2021/01/16 04:52:41;;;;;;;11.93;6.82;;;3.50;57.40;;;;;;5012762;28;20387;-83
2021/01/16 04:55:09;;;;;;;11.50;7.10;;;3.50;57.50;;;;;;5013949;28;20030;-83
2021/01/16 04:57:37;;;;;;;14.75;7.78;;;3.50;57.30;;;;;;5028641;28;20022;-83
2021/01/16 05:00:14;;;;;;;11.55;7.32;;;3.60;57.30;;;;;;5029031;28;20035;-83
2021/01/16 05:02:41;;;;;;;14.30;8.98;;;3.50;57.20;;;;;;5013643;28;20037;-83
2021/01/16 05:05:08;;;;;;;12.15;7.53;;;3.50;57.10;;;;;;5013752;28;20018;-82
2021/01/16 05:07:35;;;;;;;11.63;7.22;;;3.60;57.20;;;;;;5013438;28;20049;-83
2021/01/16 05:10:06;;;;;;;14.80;7.95;;;3.60;57.20;;;;;;5013760;28;20387;-83
2021/01/16 05:12:31;;;;;;;13.35;7.88;;;3.60;57.20;;;;;;5013588;28;20029;-83
2021/01/16 05:15:09;;;;;;;14.65;9.15;;;3.60;57.00;;;;;;5012413;28;20022;-83
2021/01/16 05:18:02;;;;;;;14.88;8.68;;;3.60;56.90;;;;;;5012270;28;20491;-82
2021/01/16 05:20:29;;;;;;;10.73;6.43;;;3.50;56.90;;;;;;5013786;28;20050;-83
2021/01/16 05:23:11;;;;;;;12.18;7.55;;;3.60;57.00;;;;;;5012376;28;20502;-83
2021/01/16 05:25:51;;;;;;;12.07;7.90;;;3.50;57.00;;;;;;5013412;28;20079;-83
2021/01/16 05:28:19;;;;;;;13.52;8.25;;;3.50;56.80;;;;;;5013422;28;20053;-83
2021/01/16 05:30:56;;;;;;;12.40;8.63;;;3.50;57.40;;;;;;5013806;28;20510;-83
2021/01/16 05:33:24;;;;;;;12.32;7.85;;;3.50;56.70;;;;;;5015761;28;20495;-82
2021/01/16 05:35:53;;;;;;;12.98;7.88;;;3.50;56.70;;;;;;4997580;28;20437;-83
2021/01/16 05:38:26;;;;;;;13.80;7.80;;;3.50;57.40;;;;;;4997707;28;20014;-83
2021/01/16 05:40:54;;;;;;;11.45;7.47;;;3.50;56.70;;;;;;4996248;28;20026;-83
2021/01/16 05:43:21;;;;;;;12.95;8.68;;;3.50;56.80;;;;;;5004847;28;20467;-83
2021/01/16 05:45:51;;;;;;;10.65;6.90;;;3.50;56.60;;;;;;5015469;28;20028;-83
2021/01/16 05:48:17;;;;;;;15.20;7.30;;;3.50;56.70;;;;;;5016890;28;20499;-83
2021/01/16 05:50:43;;;;;;;14.25;9.30;;;3.50;56.80;;;;;;5017173;28;20476;-83
2021/01/16 05:53:09;;;;;;;14.18;8.32;;;3.50;56.80;;;;;;5016837;28;20040;-83
2021/01/16 05:55:36;;;;;;;13.88;8.43;;;3.50;56.80;;;;;;5016772;28;20022;-83
2021/01/16 05:58:07;;;;;;;14.73;9.30;;;3.50;56.80;;;;;;5015736;28;20057;-82
2021/01/16 06:00:37;;;;;;;14.85;9.43;;;3.50;56.60;;;;;;5017115;28;20018;-83
2021/01/16 06:03:10;;;;;;;16.10;9.43;;;3.50;56.40;;;;;;5015147;28;20026;-83
2021/01/16 06:05:36;;;;;;;14.23;8.07;;;3.50;56.40;;;;;;5015339;28;20029;-83
2021/01/16 06:08:03;;;;;;;13.90;8.10;;;3.50;56.50;;;;;;5031558;28;20026;-83
2021/01/16 06:10:34;;;;;;;13.52;8.15;;;3.50;56.50;;;;;;5015230;28;20048;-83
2021/01/16 06:13:15;;;;;;;13.55;8.18;;;3.50;56.50;;;;;;5016389;28;20022;-83
2021/01/16 06:15:48;;;;;;;11.65;7.35;;;3.50;56.40;;;;;;5016614;28;20148;-82
2021/01/16 06:18:20;;;;;;;13.87;8.30;;;3.50;56.40;;;;;;5015230;28;20120;-83
2021/01/16 06:20:52;;;;;;;13.40;7.90;;;3.50;56.40;;;;;;5014954;28;20050;-83
2021/01/16 06:23:20;;;;;;;13.80;7.60;;;3.50;56.30;;;;;;5016088;28;20479;-82
2021/01/16 06:25:49;;;;;;;12.93;7.93;;;3.50;56.40;;;;;;5015079;28;20037;-83
2021/01/16 06:28:17;;;;;;;13.70;7.93;;;3.50;56.30;;;;;;5015098;28;20183;-83
2021/01/16 06:30:52;;;;;;;11.70;7.43;;;3.50;56.30;;;;;;5016206;28;20033;-83
2021/01/16 06:33:54;;;;;;;13.07;7.78;;;3.50;56.40;;;;;;5015974;28;20030;-83
2021/01/16 06:36:24;;;;;;;11.82;7.25;;;3.50;56.20;;;;;;5014866;28;20017;-83
2021/01/16 06:38:58;;;;;;;13.80;8.00;;;3.50;56.30;;;;;;5016006;28;20030;-83
2021/01/16 06:41:34;;;;;;;11.85;7.28;;;3.50;56.10;;;;;;5014754;28;20030;-83
2021/01/16 06:44:00;;;;;;;12.48;7.75;;;3.50;56.10;;;;;;5014982;28;20034;-83
2021/01/16 06:46:42;;;;;;;14.27;7.88;;;3.50;56.20;;;;;;5015755;28;20041;-83
2021/01/16 06:49:21;;;;;;;11.95;7.05;;;3.50;56.10;;;;;;5015813;28;20534;-83
2021/01/16 06:51:50;;;;;;;14.10;8.07;;;3.50;56.10;;;;;;5015924;28;20057;-83
2021/01/16 06:54:25;;;;;;;11.60;7.30;;;3.50;56.10;;;;;;5015251;28;20025;-83
2021/01/16 06:57:00;;;;;;;12.02;7.55;;;3.50;56.10;;;;;;5014906;28;20156;-83
2021/01/16 06:59:27;;;;;;;9.93;6.75;;;3.50;56.10;;;;;;5015486;28;20034;-82
2021/01/16 07:01:54;;;;;;;12.02;7.35;;;3.50;56.10;;;;;;5014017;28;20024;-82
2021/01/16 07:04:21;;;;;;;10.93;7.15;;;3.50;56.00;;;;;;5030760;28;20037;-82
2021/01/16 07:06:48;;;;;;;15.73;8.45;;;3.50;56.10;;;;;;5014080;28;20030;-83
2021/01/16 07:09:18;;;;;;;11.75;8.00;;;3.50;56.10;;;;;;5014098;28;20042;-82
2021/01/16 07:11:49;;;;;;;13.35;7.97;;;3.50;56.50;;;;;;5014951;28;20438;-82
2021/01/16 07:14:16;;;;;;;10.77;7.13;;;3.50;56.00;;;;;;5014376;28;20121;-82
2021/01/16 07:16:45;;;;;;;13.25;7.28;;;3.50;56.10;;;;;;5017744;28;20391;-82
2021/01/16 07:19:11;;;;;;;15.73;9.00;;;3.60;56.00;;;;;;5017378;28;20026;-82
2021/01/16 07:21:41;;;;;;;15.23;8.73;;;3.60;56.10;;;;;;5016311;28;20050;-83
2021/01/16 07:24:17;;;;;;;15.15;8.93;;;3.60;55.60;;;;;;5015269;28;20109;-82
2021/01/16 07:26:51;;;;;;;16.88;8.80;;;3.60;55.60;;;;;;5016148;28;20402;-82
2021/01/16 07:29:17;;;;;;;11.27;7.07;;;3.60;55.30;;;;;;5015404;28;20378;-83
2021/01/16 07:31:44;;;;;;;12.45;7.70;;;3.60;55.30;;;;;;5030198;28;20030;-82
2021/01/16 07:34:11;;;;;;;12.45;7.30;;;3.70;55.30;;;;;;5014953;28;20091;-82
2021/01/16 07:36:37;;;;;;;11.65;6.75;;;3.70;55.80;;;;;;5014850;28;20018;-82
2021/01/16 07:39:06;;;;;;;14.63;8.85;;;3.80;55.40;;;;;;5013696;28;20033;-83
2021/01/16 07:41:35;;;;;;;13.32;7.25;;;3.80;54.90;;;;;;5014869;28;20132;-83
2021/01/16 07:44:06;;;;;;;10.52;6.15;;;3.80;54.60;;;;;;5013391;28;20510;-83
2021/01/16 07:46:32;;;;;;;16.45;7.22;;;3.80;54.50;;;;;;5013477;28;20064;-83
2021/01/16 07:49:04;;;;;;;10.77;6.43;;;3.80;54.50;;;;;;5014612;28;20591;-83
2021/01/16 07:51:39;;;;;;;11.38;7.35;;;3.90;54.40;;;;;;5014698;28;20026;-82
2021/01/16 07:54:07;;;;;;;8.63;5.47;;;3.90;54.20;;;;;;5013784;28;20030;-83
2021/01/16 07:56:37;;;;;;;11.32;6.68;;;3.90;54.40;;;;;;5012936;28;20029;-82
2021/01/16 07:59:19;;;;;;;13.43;7.78;;;3.90;54.40;;;;;;5013157;28;20021;-82
2021/01/16 08:01:54;;;;;;;13.02;7.15;;;4.00;54.20;;;;;;5014555;28;20022;-82
2021/01/16 08:04:19;;;;;;;13.00;7.00;;;4.00;53.90;;;;;;5020142;28;20022;-83
2021/01/16 08:07:09;;;;;;;12.73;7.10;;;4.00;53.80;;;;;;5029524;28;20025;-82
2021/01/16 08:09:50;;;;;;;13.02;7.65;;;4.00;53.60;;;;;;5013366;28;20025;-83
2021/01/16 08:12:27;;;;;;;12.93;7.20;;;4.10;53.50;;;;;;5014145;28;20064;-83
2021/01/16 08:14:54;;;;;;;11.35;7.40;;;4.00;53.20;;;;;;5013194;28;20030;-82
2021/01/16 08:17:38;;;;;;;12.02;7.05;;;4.00;53.30;;;;;;5013134;28;20038;-82
2021/01/16 08:20:17;;;;;;;17.77;7.93;;;4.00;53.00;;;;;;5014042;28;20044;-83
2021/01/16 08:22:45;;;;;;;11.15;6.85;;;4.10;53.20;;;;;;5014343;28;20060;-83
2021/01/16 08:25:13;;;;;;;11.10;6.97;;;4.10;53.50;;;;;;5013278;28;20399;-83
2021/01/16 08:27:46;;;;;;;12.13;6.93;;;4.10;53.40;;;;;;5014186;28;20026;-83
2021/01/16 08:30:15;;;;;;;13.57;7.82;;;4.10;53.40;;;;;;5014525;28;20026;-84
2021/01/16 08:33:04;;;;;;;12.10;7.28;;;4.20;53.20;;;;;;5014078;28;20037;-82
2021/01/16 08:35:32;;;;;;;15.20;7.75;;;4.20;53.10;;;;;;5014117;28;20045;-83
2021/01/16 08:38:16;;;;;;;13.40;7.97;;;4.30;53.60;;;;;;5012868;28;20026;-83
2021/01/16 08:41:03;;;;;;;15.73;8.63;;;4.30;53.10;;;;;;5012820;28;20030;-82
2021/01/16 08:43:43;;;;;;;11.90;7.38;;;4.30;52.90;;;;;;5013644;28;20030;-82
2021/01/16 08:46:30;;;;;;;14.13;7.18;;;4.30;52.90;;;;;;5013120;28;20472;-83
2021/01/16 08:49:04;;;;;;;11.45;6.65;;;4.30;52.90;;;;;;5012786;28;20038;-82
2021/01/16 08:51:32;;;;;;;10.35;6.78;;;4.40;53.30;;;;;;5014191;28;20073;-82
2021/01/16 08:54:24;;;;;;;10.00;6.43;;;4.50;53.60;;;;;;5014688;28;20057;-82
2021/01/16 08:57:16;;;;;;;11.57;7.03;;;4.60;53.60;;;;;;5014104;28;20412;-82
2021/01/16 08:59:41;;;;;;;11.23;6.78;;;4.70;53.40;;;;;;5013079;28;20114;-82
2021/01/16 09:02:17;;;;;;;11.63;7.20;;;4.70;53.20;;;;;;5013911;28;20128;-81
2021/01/16 09:04:44;;;;;;;12.30;7.82;;;4.80;53.10;;;;;;5029374;28;20034;-82
2021/01/16 09:07:24;;;;;;;11.13;7.30;;;4.90;52.70;;;;;;5015672;28;20030;-81
2021/01/16 09:09:55;;;;;;;11.63;6.97;;;4.90;52.50;;;;;;5016756;28;20033;-82
2021/01/16 09:12:31;;;;;;;13.57;7.47;;;4.90;52.50;;;;;;5032484;28;20033;-81
2021/01/16 09:15:26;;;;;;;11.07;7.47;;;5.00;52.50;;;;;;5016642;28;20099;-81
2021/01/16 09:18:12;;;;;;;13.45;9.23;;;5.00;52.80;;;;;;5017777;28;20041;-82
2021/01/16 09:20:43;;;;;;;13.65;8.63;;;5.00;52.50;;;;;;5017432;28;20117;-81
2021/01/16 09:23:18;;;;;;;13.65;8.30;;;5.10;52.70;;;;;;5016256;28;20061;-82
2021/01/16 09:25:55;;;;;;;13.27;8.15;;;5.10;52.50;;;;;;5016851;28;20033;-81
2021/01/16 09:28:42;;;;;;;19.52;8.57;;;5.10;52.50;;;;;;5017320;28;20022;-81
2021/01/16 09:31:25;;;;;;;16.50;9.90;;;5.10;52.70;;;;;;5016012;28;20541;-81
2021/01/16 09:34:00;;;;;;;13.73;8.77;;;5.20;52.80;;;;;;5032739;28;20034;-81
2021/01/16 09:37:00;;;;;;;17.30;10.35;;;5.20;52.90;;;;;;5016901;28;20272;-81
2021/01/16 09:39:31;;;;;;;14.80;9.82;;;5.20;52.40;;;;;;5032209;28;20395;-81
2021/01/16 09:42:18;;;;;;;13.63;8.27;;;5.30;52.60;;;;;;5016614;28;20033;-81
2021/01/16 09:44:52;;;;;;;14.75;9.10;;;5.30;53.00;;;;;;5032101;28;20068;-81
2021/01/16 09:47:26;;;;;;;15.60;9.30;;;5.40;53.40;;;;;;5016989;28;20022;-81
2021/01/16 09:50:01;;;;;;;14.30;9.02;;;5.40;53.10;;;;;;5017261;28;20077;-81
2021/01/16 09:52:28;;;;;;;16.33;8.90;;;5.50;52.80;;;;;;5016006;28;20030;-81
2021/01/16 09:54:54;;;;;;;16.92;9.32;;;5.50;52.70;;;;;;5016543;28;20084;-81
2021/01/16 09:57:43;;;;;;;13.93;9.15;;;5.50;52.70;;;;;;5016016;28;20375;-81
2021/01/16 10:00:17;;;;;;;15.52;9.45;;;5.60;52.80;;;;;;5015534;28;20026;-81
2021/01/16 10:02:43;;;;;;;;;;;5.70;52.60;;;;;;5012448;28;20510;-81
2021/01/16 10:05:27;;;;;;;15.05;8.93;;;5.70;52.90;;;;;;5012383;28;19972;-81
2021/01/16 10:07:54;;;;;;;14.98;8.95;;;5.70;52.40;;;;;;4997232;28;20101;-82
2021/01/16 10:10:20;;;;;;;13.82;8.85;;;5.80;52.40;;;;;;4997117;28;20030;-81
2021/01/16 10:12:47;;;;;;;13.73;8.60;;;5.80;52.50;;;;;;5012032;28;20026;-81
2021/01/16 10:15:16;;;;;;;15.20;9.55;;;5.90;52.80;;;;;;5012069;28;20053;-81
2021/01/16 10:17:52;;;;;;;16.77;10.57;;;6.00;52.70;;;;;;4994497;28;20104;-81
2021/01/16 10:20:18;;;;;;;15.68;9.57;;;5.90;51.80;;;;;;4996631;28;20038;-81
2021/01/16 10:22:52;;;;;;;15.95;10.27;;;6.00;51.60;;;;;;4996558;28;20019;-81
2021/01/16 10:25:19;;;;;;;16.17;9.77;;;5.90;51.30;;;;;;5011858;28;20026;-81
2021/01/16 10:27:56;;;;;;;18.67;10.65;;;5.80;51.20;;;;;;4996698;28;20101;-81
2021/01/16 10:30:30;;;;;;;15.40;9.93;;;5.70;51.50;;;;;;4996649;28;20072;-81
2021/01/16 10:32:56;;;;;;;14.02;9.10;;;5.60;51.70;;;;;;4996789;28;20498;-81
2021/01/16 10:35:29;;;;;;;16.05;10.15;;;5.60;51.90;;;;;;4996426;28;20030;-81
2021/01/16 10:37:57;;;;;;;14.68;9.60;;;5.60;52.70;;;;;;5011462;28;20030;-81
2021/01/16 10:40:23;;;;;;;12.98;8.43;;;5.60;52.90;;;;;;4996394;28;20444;-81
2021/01/16 10:42:57;;;;;;;15.43;10.48;;;5.70;52.50;;;;;;4996711;28;20092;-81
2021/01/16 10:45:29;;;;;;;17.73;10.18;;;5.70;52.10;;;;;;5012041;28;20423;-81
2021/01/16 10:47:56;;;;;;;14.02;9.32;;;5.70;52.00;;;;;;5012025;28;20038;-81
2021/01/16 10:50:30;;;;;;;15.20;9.38;;;5.70;51.80;;;;;;5011748;28;20113;-81
2021/01/16 10:53:04;;;;;;;16.50;9.73;;;5.70;51.40;;;;;;4996590;28;20073;-81
2021/01/16 10:55:54;;;;;;;13.75;8.95;;;5.60;51.30;;;;;;5011272;28;20023;-81
2021/01/16 10:58:23;;;;;;;13.27;8.25;;;5.60;51.30;;;;;;4996751;28;20030;-81
2021/01/16 11:00:54;;;;;;;13.60;8.82;;;5.50;51.20;;;;;;5014674;28;20487;-81
2021/01/16 11:03:32;;;;;;;15.35;8.73;;;5.50;51.10;;;;;;5031539;28;20457;-81
2021/01/16 11:06:04;;;;;;;17.23;9.88;;;5.40;50.90;;;;;;5016064;28;20029;-80
2021/01/16 11:08:33;;;;;;;12.00;7.80;;;5.30;50.90;;;;;;5031414;28;20030;-80
2021/01/16 11:11:00;;;;;;;14.93;8.13;;;5.30;51.10;;;;;;5014926;28;20028;-80
2021/01/16 11:13:28;;;;;;;17.23;9.48;;;5.30;51.10;;;;;;5015526;28;20022;-81
2021/01/16 11:16:10;;;;;;;13.20;7.90;;;5.30;51.00;;;;;;5015880;28;20033;-81
2021/01/16 11:18:36;;;;;;;14.27;7.57;;;5.30;51.20;;;;;;5030668;28;20467;-80
2021/01/16 11:21:07;;;;;;;14.55;8.23;;;5.30;51.60;;;;;;5015377;28;20042;-81
2021/01/16 11:23:47;;;;;;;12.57;7.95;;;5.40;51.10;;;;;;5014862;28;20080;-81
2021/01/16 11:26:17;;;;;;;10.43;6.82;;;5.40;50.80;;;;;;5015795;28;20025;-81
2021/01/16 11:28:50;;;;;;;12.80;7.68;;;5.40;51.20;;;;;;5015563;28;20026;-81
2021/01/16 11:31:36;;;;;;;11.45;7.80;;;5.50;51.10;;;;;;5030702;28;20030;-82
2021/01/16 11:34:19;;;;;;;11.55;7.72;;;5.50;51.20;;;;;;5014393;28;20500;-82
2021/01/16 11:37:00;;;;;;;13.27;7.82;;;5.60;52.00;;;;;;5016158;28;20026;-82
2021/01/16 11:39:42;;;;;;;10.35;7.40;;;5.50;51.90;;;;;;5009392;28;20030;-81
2021/01/16 11:42:09;;;;;;;17.48;8.40;;;5.60;52.00;;;;;;5014854;28;20045;-82
2021/01/16 11:44:51;;;;;;;11.15;6.82;;;5.60;51.80;;;;;;5016103;28;20093;-82
2021/01/16 11:47:17;;;;;;;13.52;8.02;;;5.60;51.90;;;;;;5022091;28;20030;-83
2021/01/16 11:49:46;;;;;;;12.52;7.63;;;5.70;51.80;;;;;;5023056;28;20175;-83
2021/01/16 11:52:13;;;;;;;11.35;7.72;;;5.80;51.90;;;;;;5023639;28;20026;-80
2021/01/16 11:54:39;;;;;;;13.75;8.05;;;5.80;51.80;;;;;;5023045;28;20025;-82
2021/01/16 11:57:09;;;;;;;10.82;7.55;;;5.90;51.70;;;;;;5021394;28;20060;-81
2021/01/16 11:59:36;;;;;;;13.27;8.15;;;6.00;51.80;;;;;;5015878;28;20026;-83
2021/01/16 12:02:02;;;;;;;11.93;7.95;;;6.10;51.70;;;;;;5012784;28;20033;-82
2021/01/16 12:04:28;;;;;;;13.65;7.90;;;6.10;51.00;;;;;;5015043;28;20487;-83
2021/01/16 12:06:59;;;;;;;11.52;7.75;;;6.20;51.20;;;;;;5014294;28;20061;-82
2021/01/16 12:09:27;;;;;;;12.65;7.88;;;6.20;50.80;;;;;;5030932;28;20026;-82
2021/01/16 12:11:54;;;;;;;12.35;7.88;;;6.30;50.60;;;;;;5013736;28;20053;-82
2021/01/16 12:14:20;;;;;;;10.50;6.88;;;6.40;50.80;;;;;;5016068;28;20021;-82
2021/01/16 12:16:47;;;;;;;10.93;7.47;;;6.40;50.50;;;;;;5014275;28;20022;-83
2021/01/16 12:19:15;;;;;;;13.20;8.00;;;6.50;50.40;;;;;;5030711;28;20076;-83
2021/01/16 12:21:48;;;;;;;10.63;6.93;;;6.50;49.80;;;;;;5011717;28;20042;-82
2021/01/16 12:24:15;;;;;;;16.27;8.03;;;6.50;49.40;;;;;;5014119;28;20033;-82
2021/01/16 12:26:50;;;;;;;13.07;7.75;;;6.50;49.40;;;;;;5013492;28;20029;-81
2021/01/16 12:29:34;;;;;;;12.80;7.30;;;6.50;49.20;;;;;;5015029;28;20028;-83
2021/01/16 12:32:10;;;;;;;13.02;8.23;;;6.50;48.30;;;;;;5014763;28;20032;-83
2021/01/16 12:34:56;;;;;;;15.10;8.27;;;6.50;48.60;;;;;;5009115;28;20034;-81
2021/01/16 12:37:42;;;;;;;10.13;7.03;;;6.50;48.30;;;;;;5013071;28;20213;-83
2021/01/16 12:40:17;;;;;;;12.50;7.57;;;6.50;48.30;;;;;;4994664;28;20035;-83
2021/01/16 12:42:44;;;;;;;10.50;6.38;;;6.50;48.20;;;;;;5004544;28;20018;-82
2021/01/16 12:45:15;;;;;;;11.82;7.40;;;6.60;48.40;;;;;;5014163;28;20360;-82
2021/01/16 12:47:47;;;;;;;11.07;7.25;;;6.60;47.90;;;;;;5013414;28;20014;-82
2021/01/16 12:50:13;;;;;;;11.18;7.18;;;6.70;47.80;;;;;;5015779;28;20022;-83
2021/01/16 12:52:45;;;;;;;10.15;6.85;;;6.70;47.90;;;;;;5012673;28;20446;-83
2021/01/16 12:55:16;;;;;;;11.38;6.82;;;6.70;47.70;;;;;;5009328;28;20021;-83
2021/01/16 12:57:47;;;;;;;11.77;6.93;;;6.70;47.70;;;;;;5023548;28;20030;-83
2021/01/16 13:00:27;;;;;;;12.48;7.60;;;6.60;47.30;;;;;;5029817;28;20117;-81
2021/01/16 13:02:57;;;;;;;13.40;7.65;;;6.60;47.00;;;;;;5012000;28;20030;-81
2021/01/16 13:05:41;;;;;;;13.15;7.78;;;6.50;45.90;;;;;;5013093;28;20022;-81